sensor_id;sensor_type;location;lat;lon;timestamp;P1;durP1;ratioP1;P2;durP2;ratioP2
76540;SDS011;65385;55.772;37.658;2023-11-19T00:00:06;19.02;;;9.52;;
76540;SDS011;65385;55.772;37.658;2023-11-19T00:01:12;18.58;;;8.48;;
76540;SDS011;65385;55.772;37.658;2023-11-19T00:02:12;18.13;;;8.88;;
76540;SDS011;65385;55.772;37.658;2023-11-19T00:03:13;17.25;;;8.10;;
76540;SDS011;65385;55.772;37.658;2023-11-19T00:04:14;17.48;;;7.75;;
76540;SDS011;65385;55.772;37.658;2023-11-19T00:05:15;13.65;;;7.00;;
76540;SDS011;65385;55.772;37.658;2023-11-19T00:06:16;17.77;;;8.15;;
76540;SDS011;65385;55.772;37.658;2023-11-19T00:07:17;13.68;;;6.75;;
76540;SDS011;65385;55.772;37.658;2023-11-19T00:08:18;16.10;;;7.45;;
76540;SDS011;65385;55.772;37.658;2023-11-19T00:09:19;13.93;;;7.70;;
76540;SDS011;65385;55.772;37.658;2023-11-19T00:10:20;17.90;;;7.60;;
76540;SDS011;65385;55.772;37.658;2023-11-19T00:11:22;14.68;;;8.23;;
76540;SDS011;65385;55.772;37.658;2023-11-19T00:12:22;12.50;;;7.35;;
76540;SDS011;65385;55.772;37.658;2023-11-19T00:13:24;16.08;;;7.50;;
76540;SDS011;65385;55.772;37.658;2023-11-19T00:14:26;14.23;;;7.78;;
76540;SDS011;65385;55.772;37.658;2023-11-19T00:15:27;13.27;;;6.78;;
76540;SDS011;65385;55.772;37.658;2023-11-19T00:16:28;14.73;;;7.93;;
76540;SDS011;65385;55.772;37.658;2023-11-19T00:17:29;16.02;;;8.52;;
76540;SDS011;65385;55.772;37.658;2023-11-19T00:18:30;16.10;;;8.00;;
76540;SDS011;65385;55.772;37.658;2023-11-19T00:19:33;17.55;;;8.15;;
76540;SDS011;65385;55.772;37.658;2023-11-19T00:20:33;17.50;;;9.02;;
76540;SDS011;65385;55.772;37.658;2023-11-19T00:21:34;14.95;;;7.68;;
76540;SDS011;65385;55.772;37.658;2023-11-19T00:22:35;18.33;;;8.50;;
76540;SDS011;65385;55.772;37.658;2023-11-19T00:23:36;17.15;;;7.47;;
76540;SDS011;65385;55.772;37.658;2023-11-19T00:24:37;18.17;;;8.35;;
76540;SDS011;65385;55.772;37.658;2023-11-19T00:25:37;13.98;;;8.32;;
76540;SDS011;65385;55.772;37.658;2023-11-19T00:26:39;15.13;;;9.73;;
76540;SDS011;65385;55.772;37.658;2023-11-19T00:27:39;18.08;;;7.72;;
76540;SDS011;65385;55.772;37.658;2023-11-19T00:28:40;16.88;;;8.77;;
76540;SDS011;65385;55.772;37.658;2023-11-19T00:29:41;22.77;;;9.43;;
76540;SDS011;65385;55.772;37.658;2023-11-19T00:30:42;17.33;;;8.35;;
76540;SDS011;65385;55.772;37.658;2023-11-19T00:31:44;16.98;;;8.55;;
76540;SDS011;65385;55.772;37.658;2023-11-19T00:32:45;22.98;;;10.25;;
76540;SDS011;65385;55.772;37.658;2023-11-19T00:33:46;19.45;;;9.48;;
76540;SDS011;65385;55.772;37.658;2023-11-19T00:34:47;15.55;;;8.35;;
76540;SDS011;65385;55.772;37.658;2023-11-19T00:35:48;19.25;;;8.40;;
76540;SDS011;65385;55.772;37.658;2023-11-19T00:36:48;14.60;;;7.88;;
76540;SDS011;65385;55.772;37.658;2023-11-19T00:37:49;18.90;;;6.93;;
76540;SDS011;65385;55.772;37.658;2023-11-19T00:38:51;16.35;;;8.85;;
76540;SDS011;65385;55.772;37.658;2023-11-19T00:39:54;19.65;;;9.32;;
76540;SDS011;65385;55.772;37.658;2023-11-19T00:40:56;12.75;;;8.10;;
76540;SDS011;65385;55.772;37.658;2023-11-19T00:41:57;12.05;;;8.07;;
76540;SDS011;65385;55.772;37.658;2023-11-19T00:42:57;16.42;;;9.02;;
76540;SDS011;65385;55.772;37.658;2023-11-19T00:43:58;18.58;;;8.88;;
76540;SDS011;65385;55.772;37.658;2023-11-19T00:44:59;15.93;;;8.82;;
76540;SDS011;65385;55.772;37.658;2023-11-19T00:46:06;14.90;;;8.25;;
76540;SDS011;65385;55.772;37.658;2023-11-19T00:47:07;16.77;;;8.27;;
76540;SDS011;65385;55.772;37.658;2023-11-19T00:48:08;17.13;;;8.90;;
76540;SDS011;65385;55.772;37.658;2023-11-19T00:49:09;12.45;;;7.82;;
76540;SDS011;65385;55.772;37.658;2023-11-19T00:50:12;15.75;;;8.52;;
76540;SDS011;65385;55.772;37.658;2023-11-19T00:51:13;20.52;;;9.45;;
76540;SDS011;65385;55.772;37.658;2023-11-19T00:52:14;18.52;;;8.38;;
76540;SDS011;65385;55.772;37.658;2023-11-19T00:53:16;21.42;;;10.18;;
76540;SDS011;65385;55.772;37.658;2023-11-19T00:54:17;15.82;;;8.38;;
76540;SDS011;65385;55.772;37.658;2023-11-19T00:55:17;16.00;;;8.35;;
76540;SDS011;65385;55.772;37.658;2023-11-19T00:56:19;17.95;;;8.65;;
76540;SDS011;65385;55.772;37.658;2023-11-19T00:57:20;16.73;;;8.40;;
76540;SDS011;65385;55.772;37.658;2023-11-19T00:58:21;16.70;;;7.60;;
76540;SDS011;65385;55.772;37.658;2023-11-19T00:59:22;18.60;;;8.65;;
76540;SDS011;65385;55.772;37.658;2023-11-19T01:00:23;16.15;;;9.23;;
76540;SDS011;65385;55.772;37.658;2023-11-19T01:01:27;23.80;;;8.23;;
76540;SDS011;65385;55.772;37.658;2023-11-19T01:02:27;18.67;;;7.82;;
76540;SDS011;65385;55.772;37.658;2023-11-19T01:03:30;20.02;;;8.50;;
76540;SDS011;65385;55.772;37.658;2023-11-19T01:04:34;17.95;;;9.93;;
76540;SDS011;65385;55.772;37.658;2023-11-19T01:05:35;14.35;;;8.52;;
76540;SDS011;65385;55.772;37.658;2023-11-19T01:06:36;18.85;;;8.73;;
76540;SDS011;65385;55.772;37.658;2023-11-19T01:07:37;18.05;;;7.65;;
76540;SDS011;65385;55.772;37.658;2023-11-19T01:08:38;14.52;;;8.85;;
76540;SDS011;65385;55.772;37.658;2023-11-19T01:09:41;19.30;;;9.35;;
76540;SDS011;65385;55.772;37.658;2023-11-19T01:10:42;13.38;;;7.50;;
76540;SDS011;65385;55.772;37.658;2023-11-19T01:11:42;20.45;;;9.50;;
76540;SDS011;65385;55.772;37.658;2023-11-19T01:12:43;19.70;;;8.48;;
76540;SDS011;65385;55.772;37.658;2023-11-19T01:13:44;20.30;;;9.73;;
76540;SDS011;65385;55.772;37.658;2023-11-19T01:14:46;22.15;;;9.82;;
76540;SDS011;65385;55.772;37.658;2023-11-19T01:15:46;20.67;;;8.63;;
76540;SDS011;65385;55.772;37.658;2023-11-19T01:16:48;17.83;;;8.30;;
76540;SDS011;65385;55.772;37.658;2023-11-19T01:17:49;19.75;;;9.88;;
76540;SDS011;65385;55.772;37.658;2023-11-19T01:18:49;19.55;;;9.68;;
76540;SDS011;65385;55.772;37.658;2023-11-19T01:19:50;25.40;;;10.45;;
76540;SDS011;65385;55.772;37.658;2023-11-19T01:20:51;20.10;;;9.20;;
76540;SDS011;65385;55.772;37.658;2023-11-19T01:21:51;20.77;;;8.68;;
76540;SDS011;65385;55.772;37.658;2023-11-19T01:22:52;18.65;;;8.88;;
76540;SDS011;65385;55.772;37.658;2023-11-19T01:23:53;14.65;;;7.45;;
76540;SDS011;65385;55.772;37.658;2023-11-19T01:24:54;17.33;;;9.13;;
76540;SDS011;65385;55.772;37.658;2023-11-19T01:25:54;14.80;;;8.75;;
76540;SDS011;65385;55.772;37.658;2023-11-19T01:26:55;19.42;;;8.00;;
76540;SDS011;65385;55.772;37.658;2023-11-19T01:27:57;15.90;;;7.97;;
76540;SDS011;65385;55.772;37.658;2023-11-19T01:28:59;18.10;;;8.20;;
76540;SDS011;65385;55.772;37.658;2023-11-19T01:30:01;16.05;;;7.90;;
76540;SDS011;65385;55.772;37.658;2023-11-19T01:31:05;20.27;;;8.73;;
76540;SDS011;65385;55.772;37.658;2023-11-19T01:32:10;16.17;;;7.85;;
76540;SDS011;65385;55.772;37.658;2023-11-19T01:33:13;16.35;;;8.90;;
76540;SDS011;65385;55.772;37.658;2023-11-19T01:34:14;27.98;;;10.88;;
76540;SDS011;65385;55.772;37.658;2023-11-19T01:35:14;18.38;;;8.57;;
76540;SDS011;65385;55.772;37.658;2023-11-19T01:36:15;19.92;;;8.85;;
76540;SDS011;65385;55.772;37.658;2023-11-19T01:37:16;16.27;;;9.32;;
76540;SDS011;65385;55.772;37.658;2023-11-19T01:38:17;17.67;;;8.13;;
76540;SDS011;65385;55.772;37.658;2023-11-19T01:39:17;18.58;;;8.98;;
76540;SDS011;65385;55.772;37.658;2023-11-19T01:40:20;18.02;;;9.20;;
76540;SDS011;65385;55.772;37.658;2023-11-19T01:41:21;22.17;;;8.52;;
76540;SDS011;65385;55.772;37.658;2023-11-19T01:42:22;19.67;;;8.55;;
76540;SDS011;65385;55.772;37.658;2023-11-19T01:43:32;16.23;;;7.53;;
76540;SDS011;65385;55.772;37.658;2023-11-19T01:44:37;15.15;;;7.28;;
76540;SDS011;65385;55.772;37.658;2023-11-19T01:45:38;13.68;;;8.05;;
76540;SDS011;65385;55.772;37.658;2023-11-19T01:46:40;18.92;;;9.40;;
76540;SDS011;65385;55.772;37.658;2023-11-19T01:47:43;17.38;;;8.63;;
76540;SDS011;65385;55.772;37.658;2023-11-19T01:48:45;20.42;;;9.77;;
76540;SDS011;65385;55.772;37.658;2023-11-19T01:49:46;19.52;;;9.25;;
76540;SDS011;65385;55.772;37.658;2023-11-19T01:50:47;20.33;;;9.27;;
76540;SDS011;65385;55.772;37.658;2023-11-19T01:51:48;14.48;;;7.50;;
76540;SDS011;65385;55.772;37.658;2023-11-19T01:52:53;21.65;;;9.02;;
76540;SDS011;65385;55.772;37.658;2023-11-19T01:53:54;15.25;;;8.05;;
76540;SDS011;65385;55.772;37.658;2023-11-19T01:54:57;19.17;;;8.40;;
76540;SDS011;65385;55.772;37.658;2023-11-19T01:55:58;16.90;;;8.82;;
76540;SDS011;65385;55.772;37.658;2023-11-19T01:57:00;16.85;;;8.85;;
76540;SDS011;65385;55.772;37.658;2023-11-19T01:58:01;18.75;;;7.45;;
76540;SDS011;65385;55.772;37.658;2023-11-19T01:59:02;18.67;;;9.23;;
76540;SDS011;65385;55.772;37.658;2023-11-19T02:00:04;17.45;;;9.00;;
76540;SDS011;65385;55.772;37.658;2023-11-19T02:01:14;17.35;;;8.23;;
76540;SDS011;65385;55.772;37.658;2023-11-19T02:02:15;16.95;;;8.45;;
76540;SDS011;65385;55.772;37.658;2023-11-19T02:03:20;17.13;;;7.95;;
76540;SDS011;65385;55.772;37.658;2023-11-19T02:04:22;17.17;;;8.30;;
76540;SDS011;65385;55.772;37.658;2023-11-19T02:05:23;17.85;;;8.02;;
76540;SDS011;65385;55.772;37.658;2023-11-19T02:06:24;19.05;;;9.18;;
76540;SDS011;65385;55.772;37.658;2023-11-19T02:07:26;19.80;;;8.60;;
76540;SDS011;65385;55.772;37.658;2023-11-19T02:08:27;20.67;;;8.73;;
76540;SDS011;65385;55.772;37.658;2023-11-19T02:09:27;17.35;;;10.13;;
76540;SDS011;65385;55.772;37.658;2023-11-19T02:10:30;19.05;;;8.50;;
76540;SDS011;65385;55.772;37.658;2023-11-19T02:11:32;14.85;;;8.13;;
76540;SDS011;65385;55.772;37.658;2023-11-19T02:12:33;18.17;;;10.20;;
76540;SDS011;65385;55.772;37.658;2023-11-19T02:13:34;23.38;;;11.85;;
76540;SDS011;65385;55.772;37.658;2023-11-19T02:14:37;25.17;;;10.82;;
76540;SDS011;65385;55.772;37.658;2023-11-19T02:15:38;24.08;;;12.13;;
76540;SDS011;65385;55.772;37.658;2023-11-19T02:16:41;19.10;;;11.07;;
76540;SDS011;65385;55.772;37.658;2023-11-19T02:17:41;28.27;;;11.77;;
76540;SDS011;65385;55.772;37.658;2023-11-19T02:18:44;21.52;;;11.65;;
76540;SDS011;65385;55.772;37.658;2023-11-19T02:19:44;18.88;;;9.77;;
76540;SDS011;65385;55.772;37.658;2023-11-19T02:20:45;30.95;;;10.38;;
76540;SDS011;65385;55.772;37.658;2023-11-19T02:21:47;24.40;;;11.40;;
76540;SDS011;65385;55.772;37.658;2023-11-19T02:22:47;23.67;;;12.27;;
76540;SDS011;65385;55.772;37.658;2023-11-19T02:23:51;19.73;;;9.55;;
76540;SDS011;65385;55.772;37.658;2023-11-19T02:24:52;22.75;;;10.93;;
76540;SDS011;65385;55.772;37.658;2023-11-19T02:27:22;21.30;;;10.48;;
76540;SDS011;65385;55.772;37.658;2023-11-19T02:28:25;22.90;;;10.23;;
76540;SDS011;65385;55.772;37.658;2023-11-19T02:29:26;17.25;;;9.45;;
76540;SDS011;65385;55.772;37.658;2023-11-19T02:30:27;21.13;;;10.25;;
76540;SDS011;65385;55.772;37.658;2023-11-19T02:31:28;20.05;;;10.57;;
76540;SDS011;65385;55.772;37.658;2023-11-19T02:32:29;21.92;;;9.48;;
76540;SDS011;65385;55.772;37.658;2023-11-19T02:33:31;29.98;;;10.18;;
76540;SDS011;65385;55.772;37.658;2023-11-19T02:34:31;21.13;;;11.40;;
76540;SDS011;65385;55.772;37.658;2023-11-19T02:35:32;19.63;;;9.75;;
76540;SDS011;65385;55.772;37.658;2023-11-19T02:36:34;21.05;;;9.43;;
76540;SDS011;65385;55.772;37.658;2023-11-19T02:37:35;19.73;;;10.82;;
76540;SDS011;65385;55.772;37.658;2023-11-19T02:38:36;22.63;;;11.75;;
76540;SDS011;65385;55.772;37.658;2023-11-19T02:39:37;20.98;;;11.88;;
76540;SDS011;65385;55.772;37.658;2023-11-19T02:40:38;22.85;;;11.88;;
76540;SDS011;65385;55.772;37.658;2023-11-19T02:41:39;18.85;;;10.32;;
76540;SDS011;65385;55.772;37.658;2023-11-19T02:42:40;21.35;;;9.80;;
76540;SDS011;65385;55.772;37.658;2023-11-19T02:43:40;25.63;;;11.93;;
76540;SDS011;65385;55.772;37.658;2023-11-19T02:44:44;21.75;;;11.07;;
76540;SDS011;65385;55.772;37.658;2023-11-19T02:45:46;18.73;;;8.93;;
76540;SDS011;65385;55.772;37.658;2023-11-19T02:46:46;18.23;;;9.82;;
76540;SDS011;65385;55.772;37.658;2023-11-19T02:47:48;18.73;;;10.07;;
76540;SDS011;65385;55.772;37.658;2023-11-19T02:48:49;16.55;;;8.88;;
76540;SDS011;65385;55.772;37.658;2023-11-19T02:49:50;17.92;;;9.82;;
76540;SDS011;65385;55.772;37.658;2023-11-19T02:50:53;20.85;;;10.05;;
76540;SDS011;65385;55.772;37.658;2023-11-19T02:51:54;19.25;;;9.25;;
76540;SDS011;65385;55.772;37.658;2023-11-19T02:52:55;20.30;;;9.70;;
76540;SDS011;65385;55.772;37.658;2023-11-19T02:53:56;26.33;;;10.77;;
76540;SDS011;65385;55.772;37.658;2023-11-19T02:54:58;19.15;;;9.48;;
76540;SDS011;65385;55.772;37.658;2023-11-19T02:56:00;18.83;;;9.52;;
76540;SDS011;65385;55.772;37.658;2023-11-19T02:57:15;23.13;;;10.32;;
76540;SDS011;65385;55.772;37.658;2023-11-19T02:58:19;18.65;;;9.35;;
76540;SDS011;65385;55.772;37.658;2023-11-19T02:59:20;17.92;;;9.00;;
76540;SDS011;65385;55.772;37.658;2023-11-19T03:00:27;19.13;;;9.73;;
76540;SDS011;65385;55.772;37.658;2023-11-19T03:01:37;21.38;;;9.68;;
76540;SDS011;65385;55.772;37.658;2023-11-19T03:02:44;18.63;;;9.68;;
76540;SDS011;65385;55.772;37.658;2023-11-19T03:03:55;25.45;;;10.52;;
76540;SDS011;65385;55.772;37.658;2023-11-19T03:04:57;17.23;;;10.25;;
76540;SDS011;65385;55.772;37.658;2023-11-19T03:06:00;18.33;;;10.27;;
76540;SDS011;65385;55.772;37.658;2023-11-19T03:07:05;22.45;;;10.85;;
76540;SDS011;65385;55.772;37.658;2023-11-19T03:08:07;22.73;;;10.20;;
76540;SDS011;65385;55.772;37.658;2023-11-19T03:09:08;20.30;;;10.55;;
76540;SDS011;65385;55.772;37.658;2023-11-19T03:10:11;20.92;;;9.68;;
76540;SDS011;65385;55.772;37.658;2023-11-19T03:11:15;19.65;;;10.60;;
76540;SDS011;65385;55.772;37.658;2023-11-19T03:12:16;20.75;;;8.73;;
76540;SDS011;65385;55.772;37.658;2023-11-19T03:13:17;20.02;;;9.90;;
76540;SDS011;65385;55.772;37.658;2023-11-19T03:14:18;21.98;;;10.35;;
76540;SDS011;65385;55.772;37.658;2023-11-19T03:15:19;22.30;;;11.18;;
76540;SDS011;65385;55.772;37.658;2023-11-19T03:16:21;25.75;;;9.57;;
76540;SDS011;65385;55.772;37.658;2023-11-19T03:17:22;19.45;;;10.25;;
76540;SDS011;65385;55.772;37.658;2023-11-19T03:18:24;22.38;;;8.50;;
76540;SDS011;65385;55.772;37.658;2023-11-19T03:19:25;22.70;;;9.23;;
76540;SDS011;65385;55.772;37.658;2023-11-19T03:20:27;20.58;;;9.90;;
76540;SDS011;65385;55.772;37.658;2023-11-19T03:21:31;20.05;;;8.95;;
76540;SDS011;65385;55.772;37.658;2023-11-19T03:22:32;23.92;;;10.48;;
76540;SDS011;65385;55.772;37.658;2023-11-19T03:23:36;19.40;;;8.88;;
76540;SDS011;65385;55.772;37.658;2023-11-19T03:24:37;20.85;;;11.15;;
76540;SDS011;65385;55.772;37.658;2023-11-19T03:25:38;22.45;;;9.50;;
76540;SDS011;65385;55.772;37.658;2023-11-19T03:26:39;15.73;;;8.63;;
76540;SDS011;65385;55.772;37.658;2023-11-19T03:27:40;20.10;;;9.40;;
76540;SDS011;65385;55.772;37.658;2023-11-19T03:28:42;18.33;;;9.55;;
76540;SDS011;65385;55.772;37.658;2023-11-19T03:29:43;22.10;;;10.00;;
76540;SDS011;65385;55.772;37.658;2023-11-19T03:30:43;21.23;;;10.65;;
76540;SDS011;65385;55.772;37.658;2023-11-19T03:31:44;17.63;;;9.13;;
76540;SDS011;65385;55.772;37.658;2023-11-19T03:32:45;19.27;;;9.98;;
76540;SDS011;65385;55.772;37.658;2023-11-19T03:33:46;21.02;;;9.40;;
76540;SDS011;65385;55.772;37.658;2023-11-19T03:34:47;23.33;;;9.20;;
76540;SDS011;65385;55.772;37.658;2023-11-19T03:35:47;20.60;;;13.15;;
76540;SDS011;65385;55.772;37.658;2023-11-19T03:36:48;20.38;;;9.90;;
76540;SDS011;65385;55.772;37.658;2023-11-19T03:37:49;20.27;;;9.43;;
76540;SDS011;65385;55.772;37.658;2023-11-19T03:38:51;19.45;;;9.43;;
76540;SDS011;65385;55.772;37.658;2023-11-19T03:39:54;20.90;;;10.00;;
76540;SDS011;65385;55.772;37.658;2023-11-19T03:40:56;20.67;;;8.80;;
76540;SDS011;65385;55.772;37.658;2023-11-19T03:41:56;23.02;;;9.90;;
76540;SDS011;65385;55.772;37.658;2023-11-19T03:42:57;16.83;;;9.15;;
76540;SDS011;65385;55.772;37.658;2023-11-19T03:44:00;22.40;;;9.70;;
76540;SDS011;65385;55.772;37.658;2023-11-19T03:45:01;25.88;;;9.85;;
76540;SDS011;65385;55.772;37.658;2023-11-19T03:46:04;17.35;;;8.70;;
76540;SDS011;65385;55.772;37.658;2023-11-19T03:47:05;22.13;;;8.63;;
76540;SDS011;65385;55.772;37.658;2023-11-19T03:48:07;17.27;;;9.38;;
76540;SDS011;65385;55.772;37.658;2023-11-19T03:49:08;24.92;;;9.85;;
76540;SDS011;65385;55.772;37.658;2023-11-19T03:50:08;30.02;;;9.32;;
76540;SDS011;65385;55.772;37.658;2023-11-19T03:51:09;20.25;;;10.15;;
76540;SDS011;65385;55.772;37.658;2023-11-19T03:52:10;18.58;;;9.40;;
76540;SDS011;65385;55.772;37.658;2023-11-19T03:53:11;21.65;;;10.30;;
76540;SDS011;65385;55.772;37.658;2023-11-19T03:54:12;17.50;;;9.25;;
76540;SDS011;65385;55.772;37.658;2023-11-19T03:55:13;19.90;;;10.30;;
76540;SDS011;65385;55.772;37.658;2023-11-19T03:56:14;16.48;;;8.05;;
76540;SDS011;65385;55.772;37.658;2023-11-19T03:57:15;19.95;;;10.20;;
76540;SDS011;65385;55.772;37.658;2023-11-19T03:58:18;20.38;;;9.85;;
76540;SDS011;65385;55.772;37.658;2023-11-19T03:59:19;15.85;;;10.38;;
76540;SDS011;65385;55.772;37.658;2023-11-19T04:00:20;18.70;;;10.32;;
76540;SDS011;65385;55.772;37.658;2023-11-19T04:01:21;19.90;;;9.38;;
76540;SDS011;65385;55.772;37.658;2023-11-19T04:02:22;17.88;;;10.70;;
76540;SDS011;65385;55.772;37.658;2023-11-19T04:03:24;21.38;;;9.82;;
76540;SDS011;65385;55.772;37.658;2023-11-19T04:04:24;21.90;;;8.23;;
76540;SDS011;65385;55.772;37.658;2023-11-19T04:05:25;24.58;;;10.38;;
76540;SDS011;65385;55.772;37.658;2023-11-19T04:06:26;21.65;;;9.70;;
76540;SDS011;65385;55.772;37.658;2023-11-19T04:07:27;19.20;;;10.77;;
76540;SDS011;65385;55.772;37.658;2023-11-19T04:08:27;25.27;;;11.00;;
76540;SDS011;65385;55.772;37.658;2023-11-19T04:09:28;20.65;;;9.85;;
76540;SDS011;65385;55.772;37.658;2023-11-19T04:10:30;20.55;;;10.65;;
76540;SDS011;65385;55.772;37.658;2023-11-19T04:11:31;24.63;;;10.98;;
76540;SDS011;65385;55.772;37.658;2023-11-19T04:12:32;24.30;;;11.20;;
76540;SDS011;65385;55.772;37.658;2023-11-19T04:13:33;20.73;;;10.80;;
76540;SDS011;65385;55.772;37.658;2023-11-19T04:14:34;18.67;;;10.02;;
76540;SDS011;65385;55.772;37.658;2023-11-19T04:15:36;21.20;;;10.80;;
76540;SDS011;65385;55.772;37.658;2023-11-19T04:16:37;22.85;;;10.75;;
76540;SDS011;65385;55.772;37.658;2023-11-19T04:17:38;20.35;;;10.00;;
76540;SDS011;65385;55.772;37.658;2023-11-19T04:18:38;22.88;;;10.95;;
76540;SDS011;65385;55.772;37.658;2023-11-19T04:19:39;17.15;;;10.18;;
76540;SDS011;65385;55.772;37.658;2023-11-19T04:20:41;21.25;;;10.23;;
76540;SDS011;65385;55.772;37.658;2023-11-19T04:21:42;18.08;;;10.85;;
76540;SDS011;65385;55.772;37.658;2023-11-19T04:22:43;19.83;;;10.15;;
76540;SDS011;65385;55.772;37.658;2023-11-19T04:23:44;16.65;;;9.50;;
76540;SDS011;65385;55.772;37.658;2023-11-19T04:24:45;27.38;;;11.45;;
76540;SDS011;65385;55.772;37.658;2023-11-19T04:25:46;18.17;;;10.70;;
76540;SDS011;65385;55.772;37.658;2023-11-19T04:26:46;19.13;;;10.43;;
76540;SDS011;65385;55.772;37.658;2023-11-19T04:27:47;21.83;;;11.48;;
76540;SDS011;65385;55.772;37.658;2023-11-19T04:28:50;22.90;;;10.63;;
76540;SDS011;65385;55.772;37.658;2023-11-19T04:29:55;19.23;;;10.70;;
76540;SDS011;65385;55.772;37.658;2023-11-19T04:30:55;19.90;;;11.50;;
76540;SDS011;65385;55.772;37.658;2023-11-19T04:31:56;22.17;;;12.52;;
76540;SDS011;65385;55.772;37.658;2023-11-19T04:32:57;23.98;;;11.80;;
76540;SDS011;65385;55.772;37.658;2023-11-19T04:33:58;20.25;;;11.00;;
76540;SDS011;65385;55.772;37.658;2023-11-19T04:35:00;28.10;;;11.85;;
76540;SDS011;65385;55.772;37.658;2023-11-19T04:36:01;23.77;;;10.13;;
76540;SDS011;65385;55.772;37.658;2023-11-19T04:37:03;17.75;;;9.15;;
76540;SDS011;65385;55.772;37.658;2023-11-19T04:38:04;23.60;;;10.98;;
76540;SDS011;65385;55.772;37.658;2023-11-19T04:39:05;20.23;;;10.35;;
76540;SDS011;65385;55.772;37.658;2023-11-19T04:40:10;20.80;;;10.43;;
76540;SDS011;65385;55.772;37.658;2023-11-19T04:41:12;22.63;;;11.07;;
76540;SDS011;65385;55.772;37.658;2023-11-19T04:42:13;21.00;;;11.15;;
76540;SDS011;65385;55.772;37.658;2023-11-19T04:43:17;26.67;;;11.48;;
76540;SDS011;65385;55.772;37.658;2023-11-19T04:44:18;23.67;;;11.90;;
76540;SDS011;65385;55.772;37.658;2023-11-19T04:45:18;19.92;;;10.77;;
76540;SDS011;65385;55.772;37.658;2023-11-19T04:46:20;19.27;;;12.25;;
76540;SDS011;65385;55.772;37.658;2023-11-19T04:47:21;24.55;;;11.95;;
76540;SDS011;65385;55.772;37.658;2023-11-19T04:48:22;24.63;;;11.65;;
76540;SDS011;65385;55.772;37.658;2023-11-19T04:49:22;29.65;;;13.13;;
76540;SDS011;65385;55.772;37.658;2023-11-19T04:50:23;22.50;;;12.32;;
76540;SDS011;65385;55.772;37.658;2023-11-19T04:51:26;30.92;;;13.18;;
76540;SDS011;65385;55.772;37.658;2023-11-19T04:52:27;25.38;;;12.63;;
76540;SDS011;65385;55.772;37.658;2023-11-19T04:53:27;19.30;;;11.70;;
76540;SDS011;65385;55.772;37.658;2023-11-19T04:54:28;23.98;;;11.85;;
76540;SDS011;65385;55.772;37.658;2023-11-19T04:55:28;22.35;;;12.95;;
76540;SDS011;65385;55.772;37.658;2023-11-19T04:56:29;28.70;;;12.27;;
76540;SDS011;65385;55.772;37.658;2023-11-19T04:57:30;25.75;;;12.98;;
76540;SDS011;65385;55.772;37.658;2023-11-19T04:58:31;20.75;;;11.45;;
76540;SDS011;65385;55.772;37.658;2023-11-19T04:59:33;23.90;;;12.32;;
76540;SDS011;65385;55.772;37.658;2023-11-19T05:00:34;21.23;;;11.27;;
76540;SDS011;65385;55.772;37.658;2023-11-19T05:01:35;22.40;;;11.45;;
76540;SDS011;65385;55.772;37.658;2023-11-19T05:02:36;34.25;;;13.95;;
76540;SDS011;65385;55.772;37.658;2023-11-19T05:03:37;27.00;;;11.63;;
76540;SDS011;65385;55.772;37.658;2023-11-19T05:04:42;26.98;;;13.20;;
76540;SDS011;65385;55.772;37.658;2023-11-19T05:06:45;20.00;;;10.68;;
76540;SDS011;65385;55.772;37.658;2023-11-19T05:07:46;26.20;;;12.63;;
76540;SDS011;65385;55.772;37.658;2023-11-19T05:08:46;24.75;;;11.23;;
76540;SDS011;65385;55.772;37.658;2023-11-19T05:09:47;25.73;;;13.63;;
76540;SDS011;65385;55.772;37.658;2023-11-19T05:10:48;28.92;;;12.77;;
76540;SDS011;65385;55.772;37.658;2023-11-19T05:11:49;23.30;;;12.50;;
76540;SDS011;65385;55.772;37.658;2023-11-19T05:12:50;20.65;;;9.35;;
76540;SDS011;65385;55.772;37.658;2023-11-19T05:13:52;21.67;;;11.85;;
76540;SDS011;65385;55.772;37.658;2023-11-19T05:14:52;29.08;;;12.88;;
76540;SDS011;65385;55.772;37.658;2023-11-19T05:15:53;23.08;;;12.50;;
76540;SDS011;65385;55.772;37.658;2023-11-19T05:16:54;24.27;;;12.35;;
76540;SDS011;65385;55.772;37.658;2023-11-19T05:17:54;22.95;;;12.73;;
76540;SDS011;65385;55.772;37.658;2023-11-19T05:18:55;22.92;;;12.68;;
76540;SDS011;65385;55.772;37.658;2023-11-19T05:19:56;27.70;;;13.60;;
76540;SDS011;65385;55.772;37.658;2023-11-19T05:20:56;24.83;;;13.35;;
76540;SDS011;65385;55.772;37.658;2023-11-19T05:21:57;22.33;;;12.50;;
76540;SDS011;65385;55.772;37.658;2023-11-19T05:22:58;27.15;;;12.57;;
76540;SDS011;65385;55.772;37.658;2023-11-19T05:24:03;25.73;;;13.20;;
76540;SDS011;65385;55.772;37.658;2023-11-19T05:25:07;24.55;;;13.23;;
76540;SDS011;65385;55.772;37.658;2023-11-19T05:26:09;22.90;;;13.00;;
76540;SDS011;65385;55.772;37.658;2023-11-19T05:27:10;25.55;;;13.40;;
76540;SDS011;65385;55.772;37.658;2023-11-19T05:28:11;25.67;;;12.52;;
76540;SDS011;65385;55.772;37.658;2023-11-19T05:29:14;33.00;;;14.38;;
76540;SDS011;65385;55.772;37.658;2023-11-19T05:30:15;28.75;;;13.82;;
76540;SDS011;65385;55.772;37.658;2023-11-19T05:31:16;28.92;;;14.13;;
76540;SDS011;65385;55.772;37.658;2023-11-19T05:32:18;26.25;;;12.63;;
76540;SDS011;65385;55.772;37.658;2023-11-19T05:33:18;27.13;;;13.23;;
76540;SDS011;65385;55.772;37.658;2023-11-19T05:34:19;23.20;;;12.90;;
76540;SDS011;65385;55.772;37.658;2023-11-19T05:35:20;25.30;;;12.45;;
76540;SDS011;65385;55.772;37.658;2023-11-19T05:36:20;27.98;;;12.75;;
76540;SDS011;65385;55.772;37.658;2023-11-19T05:37:21;24.45;;;12.57;;
76540;SDS011;65385;55.772;37.658;2023-11-19T05:38:22;23.83;;;13.10;;
76540;SDS011;65385;55.772;37.658;2023-11-19T05:39:23;22.15;;;11.98;;
76540;SDS011;65385;55.772;37.658;2023-11-19T05:40:25;26.63;;;12.25;;
76540;SDS011;65385;55.772;37.658;2023-11-19T05:41:25;19.33;;;12.43;;
76540;SDS011;65385;55.772;37.658;2023-11-19T05:42:26;25.17;;;11.27;;
76540;SDS011;65385;55.772;37.658;2023-11-19T05:43:27;25.10;;;12.82;;
76540;SDS011;65385;55.772;37.658;2023-11-19T05:44:28;20.48;;;10.38;;
76540;SDS011;65385;55.772;37.658;2023-11-19T05:45:29;26.70;;;11.73;;
76540;SDS011;65385;55.772;37.658;2023-11-19T05:46:30;21.77;;;11.25;;
76540;SDS011;65385;55.772;37.658;2023-11-19T05:47:30;21.08;;;10.10;;
76540;SDS011;65385;55.772;37.658;2023-11-19T05:48:31;21.73;;;11.70;;
76540;SDS011;65385;55.772;37.658;2023-11-19T05:49:31;22.50;;;11.05;;
76540;SDS011;65385;55.772;37.658;2023-11-19T05:50:33;20.52;;;11.65;;
76540;SDS011;65385;55.772;37.658;2023-11-19T05:51:37;13.50;;;7.80;;
76540;SDS011;65385;55.772;37.658;2023-11-19T05:52:39;22.65;;;11.57;;
76540;SDS011;65385;55.772;37.658;2023-11-19T05:53:40;21.95;;;11.43;;
76540;SDS011;65385;55.772;37.658;2023-11-19T05:54:41;21.92;;;11.25;;
76540;SDS011;65385;55.772;37.658;2023-11-19T05:55:42;22.55;;;9.52;;
76540;SDS011;65385;55.772;37.658;2023-11-19T05:56:55;21.20;;;12.13;;
76540;SDS011;65385;55.772;37.658;2023-11-19T05:57:56;21.13;;;11.20;;
76540;SDS011;65385;55.772;37.658;2023-11-19T05:58:57;19.58;;;9.70;;
76540;SDS011;65385;55.772;37.658;2023-11-19T05:59:57;21.70;;;12.05;;